LLBG/TLV METAR and TAF weather

Enter ICAO airport designator
Station Type Date Time Source
LLBG METAR 2021/05/13 00:20 UTC NOAA

LLBG 130020Z 14005KT 9999 SCT022 20/17 Q1010 NOSIG


Station Type Date Time Source
LLBG Decoded METAR 2021/05/13 00:20 UTC NOAA

Ben-Gurion International Airport, Israel (LLBG) 32-00N 034-54E 49M
May 12, 2021 - 08:20 PM EDT / 2021.05.13 0020 UTC
Wind: from the SE (140 degrees) at 6 MPH (5 KT):0
Visibility: greater than 7 mile(s):0
Sky conditions: partly cloudy
Temperature: 68 F (20 C)
Dew Point: 62 F (17 C)
Relative Humidity: 82%
Pressure (altimeter): 29.83 in. Hg (1010 hPa)
ob: LLBG 130020Z 14005KT 9999 SCT022 20/17 Q1010 NOSIG
cycle: 0

Station Type Date Time Source
LLBG TAF 2021/05/12 18:06 UTC NOAA

TAF TAF LLBG 121701Z 1218/1318 VRB04KT CAVOK
BECMG 1219/1221 9999 FEW017 PROB30
TEMPO 1222/1305 7000 BKN015
BECMG 1307/1309 29010KT CAVOK TX27/1312Z TN18/1303Z

Example: see airport list